sensor_id;sensor_type;location;lat;lon;timestamp;temperature;humidity
23721;DHT22;42950;52.134;5.578;2024-03-08T00:01:30;3.50;99.90
23721;DHT22;42950;52.134;5.578;2024-03-08T00:03:56;3.50;99.90
23721;DHT22;42950;52.134;5.578;2024-03-08T00:06:22;3.50;99.90
23721;DHT22;42950;52.134;5.578;2024-03-08T00:08:47;3.50;99.90
23721;DHT22;42950;52.134;5.578;2024-03-08T00:11:13;3.40;99.90
23721;DHT22;42950;52.134;5.578;2024-03-08T00:13:38;3.40;99.90
23721;DHT22;42950;52.134;5.578;2024-03-08T00:16:04;3.40;99.90
23721;DHT22;42950;52.134;5.578;2024-03-08T00:18:30;3.30;99.90
23721;DHT22;42950;52.134;5.578;2024-03-08T00:20:55;3.40;99.90
23721;DHT22;42950;52.134;5.578;2024-03-08T00:23:21;3.30;99.90
23721;DHT22;42950;52.134;5.578;2024-03-08T00:25:47;3.20;99.90
23721;DHT22;42950;52.134;5.578;2024-03-08T00:28:12;3.20;99.90
23721;DHT22;42950;52.134;5.578;2024-03-08T00:30:40;3.20;99.90
23721;DHT22;42950;52.134;5.578;2024-03-08T00:33:06;3.20;99.90
23721;DHT22;42950;52.134;5.578;2024-03-08T00:35:31;3.20;99.90
23721;DHT22;42950;52.134;5.578;2024-03-08T00:37:57;3.20;99.90
23721;DHT22;42950;52.134;5.578;2024-03-08T00:40:22;3.10;99.90
23721;DHT22;42950;52.134;5.578;2024-03-08T00:42:48;3.10;99.90
23721;DHT22;42950;52.134;5.578;2024-03-08T00:45:13;3.10;99.90
23721;DHT22;42950;52.134;5.578;2024-03-08T00:47:39;3.10;99.90
23721;DHT22;42950;52.134;5.578;2024-03-08T00:50:05;3.10;99.90
23721;DHT22;42950;52.134;5.578;2024-03-08T00:52:31;3.10;99.90
23721;DHT22;42950;52.134;5.578;2024-03-08T00:54:56;3.10;99.90
23721;DHT22;42950;52.134;5.578;2024-03-08T00:57:22;3.10;99.90
23721;DHT22;42950;52.134;5.578;2024-03-08T00:59:48;3.00;99.90
23721;DHT22;42950;52.134;5.578;2024-03-08T01:02:13;3.00;99.90
23721;DHT22;42950;52.134;5.578;2024-03-08T01:04:39;3.00;99.90
23721;DHT22;42950;52.134;5.578;2024-03-08T01:07:05;3.00;99.90
23721;DHT22;42950;52.134;5.578;2024-03-08T01:09:31;3.00;99.90
23721;DHT22;42950;52.134;5.578;2024-03-08T01:11:57;3.00;99.90
23721;DHT22;42950;52.134;5.578;2024-03-08T01:14:25;2.90;99.90
23721;DHT22;42950;52.134;5.578;2024-03-08T01:16:51;2.90;99.90
23721;DHT22;42950;52.134;5.578;2024-03-08T01:19:17;2.90;99.90
23721;DHT22;42950;52.134;5.578;2024-03-08T01:21:43;2.90;99.90
23721;DHT22;42950;52.134;5.578;2024-03-08T01:24:09;2.80;99.90
23721;DHT22;42950;52.134;5.578;2024-03-08T01:26:34;2.80;99.90
23721;DHT22;42950;52.134;5.578;2024-03-08T01:29:00;2.80;99.90
23721;DHT22;42950;52.134;5.578;2024-03-08T01:31:29;2.80;99.90
23721;DHT22;42950;52.134;5.578;2024-03-08T01:33:55;2.80;99.90
23721;DHT22;42950;52.134;5.578;2024-03-08T01:36:21;2.80;99.90
23721;DHT22;42950;52.134;5.578;2024-03-08T01:38:47;2.80;99.90
23721;DHT22;42950;52.134;5.578;2024-03-08T01:41:12;2.70;99.90
23721;DHT22;42950;52.134;5.578;2024-03-08T01:43:38;2.70;99.90
23721;DHT22;42950;52.134;5.578;2024-03-08T01:46:05;2.60;99.90
23721;DHT22;42950;52.134;5.578;2024-03-08T01:48:31;2.60;99.90
23721;DHT22;42950;52.134;5.578;2024-03-08T01:50:57;2.60;99.90
23721;DHT22;42950;52.134;5.578;2024-03-08T01:53:27;2.60;99.90
23721;DHT22;42950;52.134;5.578;2024-03-08T01:55:57;2.60;99.90
23721;DHT22;42950;52.134;5.578;2024-03-08T01:58:24;2.50;99.90
23721;DHT22;42950;52.134;5.578;2024-03-08T02:00:53;2.50;99.90
23721;DHT22;42950;52.134;5.578;2024-03-08T02:03:19;2.50;99.90
23721;DHT22;42950;52.134;5.578;2024-03-08T02:05:46;2.50;99.90
23721;DHT22;42950;52.134;5.578;2024-03-08T02:08:12;2.50;99.90
23721;DHT22;42950;52.134;5.578;2024-03-08T02:10:40;2.60;99.90
23721;DHT22;42950;52.134;5.578;2024-03-08T02:13:07;2.50;99.90
23721;DHT22;42950;52.134;5.578;2024-03-08T02:15:52;2.50;99.90
23721;DHT22;42950;52.134;5.578;2024-03-08T02:18:18;2.50;99.90
23721;DHT22;42950;52.134;5.578;2024-03-08T02:20:45;2.40;99.90
23721;DHT22;42950;52.134;5.578;2024-03-08T02:23:13;2.40;99.90
23721;DHT22;42950;52.134;5.578;2024-03-08T02:25:39;2.30;99.90
23721;DHT22;42950;52.134;5.578;2024-03-08T02:28:05;2.30;99.90
23721;DHT22;42950;52.134;5.578;2024-03-08T02:30:30;2.30;99.90
23721;DHT22;42950;52.134;5.578;2024-03-08T02:32:56;2.30;99.90
23721;DHT22;42950;52.134;5.578;2024-03-08T02:35:23;2.30;99.90
23721;DHT22;42950;52.134;5.578;2024-03-08T02:37:48;2.30;99.90
23721;DHT22;42950;52.134;5.578;2024-03-08T02:40:14;2.30;99.90
23721;DHT22;42950;52.134;5.578;2024-03-08T02:42:39;2.30;99.90
23721;DHT22;42950;52.134;5.578;2024-03-08T02:45:05;2.30;99.90
23721;DHT22;42950;52.134;5.578;2024-03-08T02:47:31;2.20;99.90
23721;DHT22;42950;52.134;5.578;2024-03-08T02:49:57;2.20;99.90
23721;DHT22;42950;52.134;5.578;2024-03-08T02:52:23;2.20;99.90
23721;DHT22;42950;52.134;5.578;2024-03-08T02:54:48;2.10;99.90
23721;DHT22;42950;52.134;5.578;2024-03-08T02:57:15;2.10;99.90
23721;DHT22;42950;52.134;5.578;2024-03-08T02:59:41;2.10;99.90
23721;DHT22;42950;52.134;5.578;2024-03-08T03:02:06;2.10;99.90
23721;DHT22;42950;52.134;5.578;2024-03-08T03:04:32;2.10;99.90
23721;DHT22;42950;52.134;5.578;2024-03-08T03:07:00;2.10;99.90
23721;DHT22;42950;52.134;5.578;2024-03-08T03:09:26;2.10;99.90
23721;DHT22;42950;52.134;5.578;2024-03-08T03:11:53;2.10;99.90
23721;DHT22;42950;52.134;5.578;2024-03-08T03:14:21;2.10;99.90
23721;DHT22;42950;52.134;5.578;2024-03-08T03:16:47;2.10;99.90
23721;DHT22;42950;52.134;5.578;2024-03-08T03:19:13;2.10;99.90
23721;DHT22;42950;52.134;5.578;2024-03-08T03:21:38;2.00;99.90
23721;DHT22;42950;52.134;5.578;2024-03-08T03:24:05;2.00;99.90
23721;DHT22;42950;52.134;5.578;2024-03-08T03:26:38;2.10;99.90
23721;DHT22;42950;52.134;5.578;2024-03-08T03:29:09;2.10;99.90
23721;DHT22;42950;52.134;5.578;2024-03-08T03:31:36;2.10;99.90
23721;DHT22;42950;52.134;5.578;2024-03-08T03:34:02;2.00;99.90
23721;DHT22;42950;52.134;5.578;2024-03-08T03:36:29;2.00;99.90
23721;DHT22;42950;52.134;5.578;2024-03-08T03:38:55;2.00;99.90
23721;DHT22;42950;52.134;5.578;2024-03-08T03:41:36;1.90;99.90
23721;DHT22;42950;52.134;5.578;2024-03-08T03:44:02;1.90;99.90
23721;DHT22;42950;52.134;5.578;2024-03-08T03:46:27;1.90;99.90
23721;DHT22;42950;52.134;5.578;2024-03-08T03:48:54;1.90;99.90
23721;DHT22;42950;52.134;5.578;2024-03-08T03:51:21;1.90;99.90
23721;DHT22;42950;52.134;5.578;2024-03-08T03:53:47;1.90;99.90
23721;DHT22;42950;52.134;5.578;2024-03-08T03:56:12;1.90;99.90
23721;DHT22;42950;52.134;5.578;2024-03-08T03:58:38;1.90;99.90
23721;DHT22;42950;52.134;5.578;2024-03-08T04:01:05;1.90;99.90
23721;DHT22;42950;52.134;5.578;2024-03-08T04:03:30;1.90;99.90
23721;DHT22;42950;52.134;5.578;2024-03-08T04:05:56;1.90;99.90
23721;DHT22;42950;52.134;5.578;2024-03-08T04:08:22;1.80;99.90
23721;DHT22;42950;52.134;5.578;2024-03-08T04:10:49;1.80;99.90
23721;DHT22;42950;52.134;5.578;2024-03-08T04:13:15;1.80;99.90
23721;DHT22;42950;52.134;5.578;2024-03-08T04:15:41;1.80;99.90
23721;DHT22;42950;52.134;5.578;2024-03-08T04:18:09;1.80;99.90
23721;DHT22;42950;52.134;5.578;2024-03-08T04:20:35;1.80;99.90
23721;DHT22;42950;52.134;5.578;2024-03-08T04:23:02;1.80;99.90
23721;DHT22;42950;52.134;5.578;2024-03-08T04:25:27;1.80;99.90
23721;DHT22;42950;52.134;5.578;2024-03-08T04:27:53;1.70;99.90
23721;DHT22;42950;52.134;5.578;2024-03-08T04:30:18;1.70;99.90
23721;DHT22;42950;52.134;5.578;2024-03-08T04:32:46;1.80;99.90
23721;DHT22;42950;52.134;5.578;2024-03-08T04:35:12;1.70;99.90
23721;DHT22;42950;52.134;5.578;2024-03-08T04:37:38;1.70;99.90
23721;DHT22;42950;52.134;5.578;2024-03-08T04:40:05;1.80;99.90
23721;DHT22;42950;52.134;5.578;2024-03-08T04:42:31;1.80;99.90
23721;DHT22;42950;52.134;5.578;2024-03-08T04:44:58;1.70;99.90
23721;DHT22;42950;52.134;5.578;2024-03-08T04:47:24;1.70;99.90
23721;DHT22;42950;52.134;5.578;2024-03-08T04:49:50;1.70;99.90
23721;DHT22;42950;52.134;5.578;2024-03-08T04:52:15;1.60;99.90
23721;DHT22;42950;52.134;5.578;2024-03-08T04:54:42;1.60;99.90
23721;DHT22;42950;52.134;5.578;2024-03-08T04:57:08;1.60;99.90
23721;DHT22;42950;52.134;5.578;2024-03-08T04:59:33;1.60;99.90
23721;DHT22;42950;52.134;5.578;2024-03-08T05:01:59;1.60;99.90
23721;DHT22;42950;52.134;5.578;2024-03-08T05:04:25;1.50;99.90
23721;DHT22;42950;52.134;5.578;2024-03-08T05:06:50;1.50;99.90
23721;DHT22;42950;52.134;5.578;2024-03-08T05:09:16;1.50;99.90
23721;DHT22;42950;52.134;5.578;2024-03-08T05:11:45;1.50;99.90
23721;DHT22;42950;52.134;5.578;2024-03-08T05:14:11;1.50;99.90
23721;DHT22;42950;52.134;5.578;2024-03-08T05:16:44;1.50;99.90
23721;DHT22;42950;52.134;5.578;2024-03-08T05:19:19;1.50;99.90
23721;DHT22;42950;52.134;5.578;2024-03-08T05:21:49;1.50;99.90
23721;DHT22;42950;52.134;5.578;2024-03-08T05:24:15;1.40;99.90
23721;DHT22;42950;52.134;5.578;2024-03-08T05:26:41;1.40;99.90
23721;DHT22;42950;52.134;5.578;2024-03-08T05:29:07;1.40;99.90
23721;DHT22;42950;52.134;5.578;2024-03-08T05:31:50;1.40;99.90
23721;DHT22;42950;52.134;5.578;2024-03-08T05:34:18;1.40;99.90
23721;DHT22;42950;52.134;5.578;2024-03-08T05:36:45;1.40;99.90
23721;DHT22;42950;52.134;5.578;2024-03-08T05:39:15;1.40;99.90
23721;DHT22;42950;52.134;5.578;2024-03-08T05:41:44;1.40;99.90
23721;DHT22;42950;52.134;5.578;2024-03-08T05:44:11;1.40;99.90
23721;DHT22;42950;52.134;5.578;2024-03-08T05:46:37;1.40;99.90
23721;DHT22;42950;52.134;5.578;2024-03-08T05:49:03;1.40;99.90
23721;DHT22;42950;52.134;5.578;2024-03-08T05:51:34;1.40;99.90
23721;DHT22;42950;52.134;5.578;2024-03-08T05:54:04;1.40;99.90
23721;DHT22;42950;52.134;5.578;2024-03-08T05:56:31;1.40;99.90
23721;DHT22;42950;52.134;5.578;2024-03-08T05:58:57;1.30;99.90
23721;DHT22;42950;52.134;5.578;2024-03-08T06:01:24;1.40;99.90
23721;DHT22;42950;52.134;5.578;2024-03-08T06:03:49;1.40;99.90
23721;DHT22;42950;52.134;5.578;2024-03-08T06:06:15;1.40;99.90
23721;DHT22;42950;52.134;5.578;2024-03-08T06:08:41;1.40;99.90
23721;DHT22;42950;52.134;5.578;2024-03-08T06:11:09;1.40;99.90
23721;DHT22;42950;52.134;5.578;2024-03-08T06:13:35;1.40;99.90
23721;DHT22;42950;52.134;5.578;2024-03-08T06:16:02;1.40;99.90
23721;DHT22;42950;52.134;5.578;2024-03-08T06:18:30;1.30;99.90
23721;DHT22;42950;52.134;5.578;2024-03-08T06:20:56;1.30;99.90
23721;DHT22;42950;52.134;5.578;2024-03-08T06:23:22;1.30;99.90
23721;DHT22;42950;52.134;5.578;2024-03-08T06:25:48;1.30;99.90
23721;DHT22;42950;52.134;5.578;2024-03-08T06:28:16;1.30;99.90
23721;DHT22;42950;52.134;5.578;2024-03-08T06:30:42;1.30;99.90
23721;DHT22;42950;52.134;5.578;2024-03-08T06:33:08;1.30;99.90
23721;DHT22;42950;52.134;5.578;2024-03-08T06:35:34;1.30;99.90
23721;DHT22;42950;52.134;5.578;2024-03-08T06:38:05;1.30;99.90
23721;DHT22;42950;52.134;5.578;2024-03-08T06:40:31;1.40;99.90
23721;DHT22;42950;52.134;5.578;2024-03-08T06:42:57;1.30;99.90
23721;DHT22;42950;52.134;5.578;2024-03-08T06:45:23;1.40;99.90
23721;DHT22;42950;52.134;5.578;2024-03-08T06:47:49;1.40;99.90
23721;DHT22;42950;52.134;5.578;2024-03-08T06:50:15;1.40;99.90
23721;DHT22;42950;52.134;5.578;2024-03-08T06:52:41;1.40;99.90
23721;DHT22;42950;52.134;5.578;2024-03-08T06:55:10;1.50;99.90
23721;DHT22;42950;52.134;5.578;2024-03-08T06:57:42;1.50;99.90
23721;DHT22;42950;52.134;5.578;2024-03-08T07:00:08;1.50;99.90
23721;DHT22;42950;52.134;5.578;2024-03-08T07:02:46;1.50;99.90
23721;DHT22;42950;52.134;5.578;2024-03-08T07:05:14;1.60;99.90
23721;DHT22;42950;52.134;5.578;2024-03-08T07:07:39;1.60;99.90
23721;DHT22;42950;52.134;5.578;2024-03-08T07:10:07;1.60;99.90
23721;DHT22;42950;52.134;5.578;2024-03-08T07:12:37;1.60;99.90
23721;DHT22;42950;52.134;5.578;2024-03-08T07:15:03;1.70;99.90
23721;DHT22;42950;52.134;5.578;2024-03-08T07:17:29;1.80;99.90
23721;DHT22;42950;52.134;5.578;2024-03-08T07:19:54;1.90;99.90
23721;DHT22;42950;52.134;5.578;2024-03-08T07:22:20;1.90;99.90
23721;DHT22;42950;52.134;5.578;2024-03-08T07:24:46;1.90;99.90
23721;DHT22;42950;52.134;5.578;2024-03-08T07:27:43;1.90;99.90
23721;DHT22;42950;52.134;5.578;2024-03-08T07:30:12;2.00;99.90
23721;DHT22;42950;52.134;5.578;2024-03-08T07:32:38;2.00;99.90
23721;DHT22;42950;52.134;5.578;2024-03-08T07:35:04;2.10;99.90
23721;DHT22;42950;52.134;5.578;2024-03-08T07:37:29;2.10;99.90
23721;DHT22;42950;52.134;5.578;2024-03-08T07:39:55;2.20;99.90
23721;DHT22;42950;52.134;5.578;2024-03-08T07:42:21;2.20;99.90
23721;DHT22;42950;52.134;5.578;2024-03-08T07:44:48;2.30;99.90
23721;DHT22;42950;52.134;5.578;2024-03-08T07:47:15;2.30;99.90
23721;DHT22;42950;52.134;5.578;2024-03-08T07:49:42;2.40;99.90
23721;DHT22;42950;52.134;5.578;2024-03-08T07:52:09;2.50;99.90
23721;DHT22;42950;52.134;5.578;2024-03-08T07:54:40;2.50;99.90
23721;DHT22;42950;52.134;5.578;2024-03-08T07:57:06;2.60;99.90
23721;DHT22;42950;52.134;5.578;2024-03-08T07:59:32;2.60;99.90
23721;DHT22;42950;52.134;5.578;2024-03-08T08:01:58;2.70;99.90
23721;DHT22;42950;52.134;5.578;2024-03-08T08:04:25;2.80;99.90
23721;DHT22;42950;52.134;5.578;2024-03-08T08:06:51;2.90;99.90
23721;DHT22;42950;52.134;5.578;2024-03-08T08:09:17;3.00;99.90
23721;DHT22;42950;52.134;5.578;2024-03-08T08:11:56;3.00;99.90
23721;DHT22;42950;52.134;5.578;2024-03-08T08:14:22;3.10;99.90
23721;DHT22;42950;52.134;5.578;2024-03-08T08:16:47;3.10;99.90
23721;DHT22;42950;52.134;5.578;2024-03-08T08:19:14;3.20;99.90
23721;DHT22;42950;52.134;5.578;2024-03-08T08:21:41;3.30;99.90
23721;DHT22;42950;52.134;5.578;2024-03-08T08:24:06;3.40;99.90
23721;DHT22;42950;52.134;5.578;2024-03-08T08:26:32;3.50;99.90
23721;DHT22;42950;52.134;5.578;2024-03-08T08:28:59;3.60;99.90
23721;DHT22;42950;52.134;5.578;2024-03-08T08:31:25;3.70;99.90
23721;DHT22;42950;52.134;5.578;2024-03-08T08:33:51;3.80;99.90
23721;DHT22;42950;52.134;5.578;2024-03-08T08:36:23;3.80;99.90
23721;DHT22;42950;52.134;5.578;2024-03-08T08:38:49;3.90;99.90
23721;DHT22;42950;52.134;5.578;2024-03-08T08:41:14;4.00;99.90
23721;DHT22;42950;52.134;5.578;2024-03-08T08:43:42;4.10;99.90
23721;DHT22;42950;52.134;5.578;2024-03-08T08:46:10;4.20;99.90
23721;DHT22;42950;52.134;5.578;2024-03-08T08:48:39;4.30;99.90
23721;DHT22;42950;52.134;5.578;2024-03-08T08:51:09;4.40;99.90
23721;DHT22;42950;52.134;5.578;2024-03-08T08:53:39;4.40;99.90
23721;DHT22;42950;52.134;5.578;2024-03-08T08:56:14;4.60;99.90
23721;DHT22;42950;52.134;5.578;2024-03-08T08:58:41;4.70;99.90
23721;DHT22;42950;52.134;5.578;2024-03-08T09:01:10;4.80;99.90
23721;DHT22;42950;52.134;5.578;2024-03-08T09:03:38;4.80;99.90
23721;DHT22;42950;52.134;5.578;2024-03-08T09:06:08;4.90;99.90
23721;DHT22;42950;52.134;5.578;2024-03-08T09:08:36;5.00;99.90
23721;DHT22;42950;52.134;5.578;2024-03-08T09:11:01;5.10;99.90
23721;DHT22;42950;52.134;5.578;2024-03-08T09:13:27;5.30;99.90
23721;DHT22;42950;52.134;5.578;2024-03-08T09:15:53;5.30;99.90
23721;DHT22;42950;52.134;5.578;2024-03-08T09:18:18;5.40;99.90
23721;DHT22;42950;52.134;5.578;2024-03-08T09:20:45;5.60;99.90
23721;DHT22;42950;52.134;5.578;2024-03-08T09:23:11;5.60;99.90
23721;DHT22;42950;52.134;5.578;2024-03-08T09:25:36;5.70;99.90
23721;DHT22;42950;52.134;5.578;2024-03-08T09:28:03;5.70;99.90
23721;DHT22;42950;52.134;5.578;2024-03-08T09:30:28;5.90;99.90
23721;DHT22;42950;52.134;5.578;2024-03-08T09:32:54;6.00;99.90
23721;DHT22;42950;52.134;5.578;2024-03-08T09:35:19;6.10;99.90
23721;DHT22;42950;52.134;5.578;2024-03-08T09:37:45;6.20;99.90
23721;DHT22;42950;52.134;5.578;2024-03-08T09:40:13;6.30;99.90
23721;DHT22;42950;52.134;5.578;2024-03-08T09:42:41;6.50;99.90
23721;DHT22;42950;52.134;5.578;2024-03-08T09:45:11;6.60;99.90
23721;DHT22;42950;52.134;5.578;2024-03-08T09:47:42;6.70;99.90
23721;DHT22;42950;52.134;5.578;2024-03-08T09:50:09;6.90;99.90
23721;DHT22;42950;52.134;5.578;2024-03-08T09:52:37;7.00;99.90
23721;DHT22;42950;52.134;5.578;2024-03-08T09:55:05;7.10;99.90
23721;DHT22;42950;52.134;5.578;2024-03-08T09:57:36;7.20;99.90
23721;DHT22;42950;52.134;5.578;2024-03-08T10:00:02;7.30;99.90
23721;DHT22;42950;52.134;5.578;2024-03-08T10:02:35;7.40;99.90
23721;DHT22;42950;52.134;5.578;2024-03-08T10:05:01;7.50;99.90
23721;DHT22;42950;52.134;5.578;2024-03-08T10:07:28;7.60;99.90
23721;DHT22;42950;52.134;5.578;2024-03-08T10:09:54;7.80;99.90
23721;DHT22;42950;52.134;5.578;2024-03-08T10:12:24;8.00;99.90
23721;DHT22;42950;52.134;5.578;2024-03-08T10:14:50;8.10;99.90
23721;DHT22;42950;52.134;5.578;2024-03-08T10:17:16;8.20;99.90
23721;DHT22;42950;52.134;5.578;2024-03-08T10:19:50;8.30;99.90
23721;DHT22;42950;52.134;5.578;2024-03-08T10:22:16;8.40;99.90
23721;DHT22;42950;52.134;5.578;2024-03-08T10:24:42;8.40;99.90
23721;DHT22;42950;52.134;5.578;2024-03-08T10:27:11;8.50;99.90
23721;DHT22;42950;52.134;5.578;2024-03-08T10:29:36;8.60;99.90
23721;DHT22;42950;52.134;5.578;2024-03-08T10:32:04;8.70;99.90
23721;DHT22;42950;52.134;5.578;2024-03-08T10:34:32;8.80;99.90
23721;DHT22;42950;52.134;5.578;2024-03-08T10:37:05;8.90;99.90
23721;DHT22;42950;52.134;5.578;2024-03-08T10:39:37;9.00;99.90
23721;DHT22;42950;52.134;5.578;2024-03-08T10:42:10;9.10;99.90
23721;DHT22;42950;52.134;5.578;2024-03-08T10:44:49;9.20;99.90
23721;DHT22;42950;52.134;5.578;2024-03-08T10:47:26;9.30;99.90
23721;DHT22;42950;52.134;5.578;2024-03-08T10:52:29;9.50;99.90
23721;DHT22;42950;52.134;5.578;2024-03-08T10:54:56;9.60;99.90
23721;DHT22;42950;52.134;5.578;2024-03-08T10:57:22;9.70;99.90
23721;DHT22;42950;52.134;5.578;2024-03-08T10:59:49;9.70;99.90
23721;DHT22;42950;52.134;5.578;2024-03-08T11:02:17;9.90;99.90
23721;DHT22;42950;52.134;5.578;2024-03-08T11:04:48;9.90;99.90
23721;DHT22;42950;52.134;5.578;2024-03-08T11:07:15;9.90;99.90
23721;DHT22;42950;52.134;5.578;2024-03-08T11:09:47;10.00;99.90
23721;DHT22;42950;52.134;5.578;2024-03-08T11:14:50;10.40;99.90
23721;DHT22;42950;52.134;5.578;2024-03-08T11:19:56;10.60;99.90
23721;DHT22;42950;52.134;5.578;2024-03-08T11:22:28;10.70;99.90
23721;DHT22;42950;52.134;5.578;2024-03-08T11:25:03;10.90;99.90
23721;DHT22;42950;52.134;5.578;2024-03-08T11:27:30;11.00;99.90
23721;DHT22;42950;52.134;5.578;2024-03-08T11:30:01;11.10;99.90
23721;DHT22;42950;52.134;5.578;2024-03-08T11:32:35;11.20;99.90
23721;DHT22;42950;52.134;5.578;2024-03-08T11:35:03;11.20;99.90
23721;DHT22;42950;52.134;5.578;2024-03-08T11:37:34;11.30;99.90
23721;DHT22;42950;52.134;5.578;2024-03-08T11:40:02;11.40;99.90
23721;DHT22;42950;52.134;5.578;2024-03-08T11:42:38;11.40;99.90
23721;DHT22;42950;52.134;5.578;2024-03-08T11:45:08;11.30;99.90
23721;DHT22;42950;52.134;5.578;2024-03-08T11:47:36;11.30;99.90
23721;DHT22;42950;52.134;5.578;2024-03-08T11:50:06;11.30;99.90
23721;DHT22;42950;52.134;5.578;2024-03-08T11:52:36;11.20;99.90
23721;DHT22;42950;52.134;5.578;2024-03-08T11:55:02;11.20;99.90
23721;DHT22;42950;52.134;5.578;2024-03-08T11:57:28;11.30;99.90
23721;DHT22;42950;52.134;5.578;2024-03-08T11:59:55;11.50;99.90
23721;DHT22;42950;52.134;5.578;2024-03-08T12:02:31;11.60;99.90
23721;DHT22;42950;52.134;5.578;2024-03-08T12:05:00;11.60;99.90
23721;DHT22;42950;52.134;5.578;2024-03-08T12:07:29;11.70;99.90
23721;DHT22;42950;52.134;5.578;2024-03-08T12:10:14;11.70;99.90
23721;DHT22;42950;52.134;5.578;2024-03-08T12:12:44;11.70;99.90
23721;DHT22;42950;52.134;5.578;2024-03-08T12:15:13;11.70;99.90
23721;DHT22;42950;52.134;5.578;2024-03-08T12:17:40;11.60;99.90
23721;DHT22;42950;52.134;5.578;2024-03-08T12:22:43;11.80;99.90
23721;DHT22;42950;52.134;5.578;2024-03-08T12:25:11;12.00;99.90
23721;DHT22;42950;52.134;5.578;2024-03-08T12:27:41;11.80;99.90
23721;DHT22;42950;52.134;5.578;2024-03-08T12:30:26;11.90;99.90
23721;DHT22;42950;52.134;5.578;2024-03-08T12:32:57;12.00;99.90
23721;DHT22;42950;52.134;5.578;2024-03-08T12:35:28;11.90;99.90
23721;DHT22;42950;52.134;5.578;2024-03-08T12:37:56;12.00;99.90
23721;DHT22;42950;52.134;5.578;2024-03-08T12:40:27;12.10;99.90
23721;DHT22;42950;52.134;5.578;2024-03-08T12:43:00;12.10;99.90
23721;DHT22;42950;52.134;5.578;2024-03-08T12:45:27;12.30;99.90
23721;DHT22;42950;52.134;5.578;2024-03-08T12:47:54;12.30;99.90
23721;DHT22;42950;52.134;5.578;2024-03-08T12:50:23;12.40;99.90
23721;DHT22;42950;52.134;5.578;2024-03-08T12:52:52;12.50;99.90
23721;DHT22;42950;52.134;5.578;2024-03-08T12:55:21;12.50;99.90
23721;DHT22;42950;52.134;5.578;2024-03-08T12:57:47;12.40;99.90
23721;DHT22;42950;52.134;5.578;2024-03-08T13:00:16;12.50;99.90
23721;DHT22;42950;52.134;5.578;2024-03-08T13:02:47;12.40;99.90
23721;DHT22;42950;52.134;5.578;2024-03-08T13:05:13;12.30;99.90
23721;DHT22;42950;52.134;5.578;2024-03-08T13:07:40;12.30;99.90
23721;DHT22;42950;52.134;5.578;2024-03-08T13:10:06;12.30;99.90
23721;DHT22;42950;52.134;5.578;2024-03-08T13:12:32;12.40;99.90
23721;DHT22;42950;52.134;5.578;2024-03-08T13:14:58;12.50;99.90
23721;DHT22;42950;52.134;5.578;2024-03-08T13:17:24;12.40;99.90
23721;DHT22;42950;52.134;5.578;2024-03-08T13:19:49;12.40;99.90
23721;DHT22;42950;52.134;5.578;2024-03-08T13:22:15;12.40;99.90
23721;DHT22;42950;52.134;5.578;2024-03-08T13:24:44;12.50;99.90
23721;DHT22;42950;52.134;5.578;2024-03-08T13:27:11;12.50;99.90
23721;DHT22;42950;52.134;5.578;2024-03-08T13:29:48;12.60;99.90
23721;DHT22;42950;52.134;5.578;2024-03-08T13:32:15;12.50;99.90
23721;DHT22;42950;52.134;5.578;2024-03-08T13:34:44;12.40;99.90
23721;DHT22;42950;52.134;5.578;2024-03-08T13:37:19;12.30;99.90
23721;DHT22;42950;52.134;5.578;2024-03-08T13:39:45;12.30;99.90
23721;DHT22;42950;52.134;5.578;2024-03-08T13:42:11;12.30;99.90
23721;DHT22;42950;52.134;5.578;2024-03-08T13:44:39;12.20;99.90
23721;DHT22;42950;52.134;5.578;2024-03-08T13:47:05;12.20;99.90
23721;DHT22;42950;52.134;5.578;2024-03-08T13:49:32;12.40;99.90
23721;DHT22;42950;52.134;5.578;2024-03-08T13:51:58;12.40;99.90
23721;DHT22;42950;52.134;5.578;2024-03-08T13:54:28;12.40;99.90
23721;DHT22;42950;52.134;5.578;2024-03-08T13:56:57;12.60;99.90
23721;DHT22;42950;52.134;5.578;2024-03-08T13:59:23;12.60;99.90
23721;DHT22;42950;52.134;5.578;2024-03-08T14:01:49;12.60;99.90
23721;DHT22;42950;52.134;5.578;2024-03-08T14:04:16;12.50;99.90
23721;DHT22;42950;52.134;5.578;2024-03-08T14:06:45;12.50;99.90
23721;DHT22;42950;52.134;5.578;2024-03-08T14:09:12;12.50;99.90
23721;DHT22;42950;52.134;5.578;2024-03-08T14:11:43;12.60;99.90
23721;DHT22;42950;52.134;5.578;2024-03-08T14:14:10;12.50;99.90
23721;DHT22;42950;52.134;5.578;2024-03-08T14:16:41;12.50;99.90
23721;DHT22;42950;52.134;5.578;2024-03-08T14:19:06;12.30;99.90
23721;DHT22;42950;52.134;5.578;2024-03-08T14:21:35;12.40;99.90
23721;DHT22;42950;52.134;5.578;2024-03-08T14:24:02;12.40;99.90
23721;DHT22;42950;52.134;5.578;2024-03-08T14:26:30;12.50;99.90
23721;DHT22;42950;52.134;5.578;2024-03-08T14:28:55;12.60;99.90
23721;DHT22;42950;52.134;5.578;2024-03-08T14:31:22;12.50;99.90
23721;DHT22;42950;52.134;5.578;2024-03-08T14:33:53;12.60;99.90
23721;DHT22;42950;52.134;5.578;2024-03-08T14:36:20;12.60;99.90
23721;DHT22;42950;52.134;5.578;2024-03-08T14:38:46;12.60;99.90
23721;DHT22;42950;52.134;5.578;2024-03-08T14:41:15;12.60;99.90
23721;DHT22;42950;52.134;5.578;2024-03-08T14:43:42;12.60;99.90
23721;DHT22;42950;52.134;5.578;2024-03-08T14:46:11;12.50;99.90
23721;DHT22;42950;52.134;5.578;2024-03-08T14:48:45;12.40;99.90
23721;DHT22;42950;52.134;5.578;2024-03-08T14:51:11;12.40;99.90
23721;DHT22;42950;52.134;5.578;2024-03-08T14:53:40;12.40;99.90
23721;DHT22;42950;52.134;5.578;2024-03-08T14:56:09;12.40;99.90
23721;DHT22;42950;52.134;5.578;2024-03-08T14:58:35;12.50;99.90
23721;DHT22;42950;52.134;5.578;2024-03-08T15:01:01;12.50;99.90
23721;DHT22;42950;52.134;5.578;2024-03-08T15:03:27;12.40;99.90
23721;DHT22;42950;52.134;5.578;2024-03-08T15:05:54;12.40;99.90
23721;DHT22;42950;52.134;5.578;2024-03-08T15:08:21;12.40;99.90
23721;DHT22;42950;52.134;5.578;2024-03-08T15:10:49;12.40;99.90
23721;DHT22;42950;52.134;5.578;2024-03-08T15:13:24;12.30;99.90
23721;DHT22;42950;52.134;5.578;2024-03-08T15:15:53;12.20;99.90
23721;DHT22;42950;52.134;5.578;2024-03-08T15:18:23;12.10;99.90
23721;DHT22;42950;52.134;5.578;2024-03-08T15:20:56;12.20;99.90
23721;DHT22;42950;52.134;5.578;2024-03-08T15:23:22;12.20;99.90
23721;DHT22;42950;52.134;5.578;2024-03-08T15:25:48;12.20;99.90
23721;DHT22;42950;52.134;5.578;2024-03-08T15:28:17;12.20;99.90
23721;DHT22;42950;52.134;5.578;2024-03-08T15:30:46;12.20;99.90
23721;DHT22;42950;52.134;5.578;2024-03-08T15:33:16;12.10;99.90
23721;DHT22;42950;52.134;5.578;2024-03-08T15:35:50;12.00;99.90
23721;DHT22;42950;52.134;5.578;2024-03-08T15:38:24;11.90;99.90
23721;DHT22;42950;52.134;5.578;2024-03-08T15:40:50;11.80;99.90
23721;DHT22;42950;52.134;5.578;2024-03-08T15:43:16;11.80;99.90
23721;DHT22;42950;52.134;5.578;2024-03-08T15:45:45;11.70;99.90
23721;DHT22;42950;52.134;5.578;2024-03-08T15:48:16;11.70;99.90
23721;DHT22;42950;52.134;5.578;2024-03-08T15:50:41;11.70;99.90
23721;DHT22;42950;52.134;5.578;2024-03-08T15:53:08;11.70;99.90
23721;DHT22;42950;52.134;5.578;2024-03-08T15:55:38;11.60;99.90